Time;durP1;ratioP1;P1;durP2;ratioP2;P2;SDS_P1;SDS_P2;PMS_P1;PMS_P2;Temp;Humidity;BMP_temperature;BMP_pressure;BME280_temperature;BME280_humidity;BME280_pressure;Samples;Min_cycle;Max_cycle;Signal;HPM_P1;HPM_P2
2023/01/04 00:00:29;;;;;;;178.23;60.90;;;0.30;99.90;;;;;;4272232;28;658595;-74
2023/01/04 00:03:16;;;;;;;241.20;81.83;;;0.30;99.90;;;;;;4243461;28;659806;-74
2023/01/04 00:06:05;;;;;;;222.90;73.97;;;0.30;99.90;;;;;;4423257;28;659256;-74
2023/01/04 00:08:52;;;;;;;144.17;51.27;;;0.30;99.90;;;;;;4376680;28;659108;-73
2023/01/04 00:11:39;;;;;;;198.43;66.30;;;0.30;99.90;;;;;;4442086;28;658724;-73
2023/01/04 00:14:27;;;;;;;260.70;84.77;;;0.30;99.90;;;;;;4418006;28;658587;-73
2023/01/04 00:17:15;;;;;;;187.53;66.57;;;0.20;99.90;;;;;;4444342;28;658436;-73
2023/01/04 00:20:03;;;;;;;179.87;61.80;;;0.10;99.90;;;;;;4416911;28;659203;-72
2023/01/04 00:22:50;;;;;;;176.53;61.30;;;0.00;99.90;;;;;;4425004;28;658662;-73
2023/01/04 00:25:38;;;;;;;133.20;48.57;;;0.00;99.90;;;;;;4440873;28;658863;-72
2023/01/04 00:28:25;;;;;;;115.40;42.93;;;0.00;99.90;;;;;;4418388;28;659400;-72
2023/01/04 00:31:14;;;;;;;87.43;36.30;;;0.00;99.90;;;;;;4438079;28;659554;-72
2023/01/04 00:34:03;;;;;;;87.63;36.33;;;-0.10;99.90;;;;;;4416506;28;658288;-73
2023/01/04 00:36:50;;;;;;;78.20;33.70;;;-0.10;99.90;;;;;;4415583;28;659415;-73
2023/01/04 00:39:38;;;;;;;68.80;29.63;;;-0.20;99.90;;;;;;4434126;28;659805;-73
2023/01/04 00:42:25;;;;;;;73.90;30.47;;;-0.10;99.90;;;;;;4422017;28;658815;-73
2023/01/04 00:45:12;;;;;;;68.13;29.03;;;-0.20;99.90;;;;;;4432342;28;659455;-72
2023/01/04 00:48:00;;;;;;;65.37;27.63;;;-0.20;99.90;;;;;;4428031;28;658722;-73
2023/01/04 00:50:49;;;;;;;60.73;28.43;;;-0.20;99.90;;;;;;4435097;28;659383;-73
2023/01/04 00:53:36;;;;;;;64.27;29.43;;;-0.20;99.90;;;;;;4417971;28;658862;-73
2023/01/04 00:56:23;;;;;;;67.77;30.00;;;-0.20;99.90;;;;;;4437795;28;659227;-73
2023/01/04 00:59:12;;;;;;;65.47;31.43;;;-0.20;99.90;;;;;;4414340;28;658728;-73
2023/01/04 01:01:59;;;;;;;101.77;41.33;;;-0.30;99.90;;;;;;4430238;28;658449;-73
2023/01/04 01:04:46;;;;;;;102.77;46.53;;;-0.30;99.90;;;;;;4413686;28;660141;-72
2023/01/04 01:07:35;;;;;;;119.70;46.83;;;-0.30;99.90;;;;;;4434294;28;660023;-72
2023/01/04 01:10:22;;;;;;;136.60;52.53;;;-0.30;99.90;;;;;;4413992;28;660949;-73
2023/01/04 01:13:10;;;;;;;123.83;49.80;;;-0.40;99.90;;;;;;4429559;28;659858;-73
2023/01/04 01:16:01;;;;;;;127.60;51.90;;;-0.40;99.90;;;;;;4438148;28;660163;-73
2023/01/04 01:18:49;;;;;;;135.00;53.80;;;-0.40;99.90;;;;;;4410037;28;660018;-72
2023/01/04 01:21:36;;;;;;;145.47;56.37;;;-0.30;99.90;;;;;;4410144;28;659957;-73
2023/01/04 01:24:25;;;;;;;115.60;45.53;;;-0.30;99.90;;;;;;4435952;28;661140;-72
2023/01/04 01:27:12;;;;;;;86.10;35.43;;;-0.20;99.90;;;;;;4413306;28;660597;-73
2023/01/04 01:29:59;;;;;;;82.53;37.07;;;-0.20;99.90;;;;;;4431751;28;658505;-73
2023/01/04 01:32:47;;;;;;;85.57;35.83;;;-0.20;99.90;;;;;;4413038;28;659642;-72
2023/01/04 01:35:34;;;;;;;87.43;38.53;;;-0.10;99.90;;;;;;4437744;28;659018;-72
2023/01/04 01:38:21;;;;;;;101.00;41.97;;;-0.10;99.90;;;;;;4415875;28;658390;-73
2023/01/04 01:41:21;;;;;;;89.63;38.17;;;0.00;99.90;;;;;;4435434;28;661065;-72
2023/01/04 01:44:41;;;;;;;90.83;39.00;;;-0.10;99.90;;;;;;4415113;28;657691;-72
2023/01/04 01:47:35;;;;;;;89.20;38.97;;;0.00;99.90;;;;;;4417528;28;658867;-72
2023/01/04 01:50:25;;;;;;;98.18;40.88;;;0.00;99.90;;;;;;4411977;28;657787;-72
2023/01/04 01:53:13;;;;;;;94.70;41.80;;;0.10;99.90;;;;;;4410874;28;657840;-73
2023/01/04 01:56:00;;;;;;;114.07;42.93;;;0.10;99.90;;;;;;4424357;28;657952;-73
2023/01/04 01:58:51;;;;;;;103.03;41.70;;;0.10;99.90;;;;;;4440782;28;658844;-72
2023/01/04 02:01:38;;;;;;;99.30;43.20;;;0.20;99.90;;;;;;4410473;28;659293;-72
2023/01/04 02:04:26;;;;;;;143.43;56.97;;;0.30;99.90;;;;;;4414291;28;657554;-72
2023/01/04 02:07:13;;;;;;;115.53;48.53;;;0.30;99.90;;;;;;4437658;28;659297;-72
2023/01/04 02:10:00;;;;;;;130.10;54.03;;;0.50;99.90;;;;;;4417337;28;658415;-72
2023/01/04 02:12:48;;;;;;;147.33;57.70;;;0.50;99.90;;;;;;4435299;28;659355;-72
2023/01/04 02:15:45;;;;;;;142.10;57.13;;;0.50;99.90;;;;;;4423156;28;659125;-73
2023/01/04 02:18:34;;;;;;;143.33;58.77;;;0.60;99.90;;;;;;4390161;28;659022;-72
2023/01/04 02:21:22;;;;;;;155.85;63.05;;;0.60;99.90;;;;;;4416483;28;658541;-73
2023/01/04 02:24:23;;;;;;;134.30;56.73;;;0.60;99.90;;;;;;4431748;28;658691;-72
2023/01/04 02:27:25;;;;;;;169.77;66.73;;;0.60;99.90;;;;;;4396449;28;658929;-73
2023/01/04 02:30:54;;;;;;;148.63;54.60;;;0.70;99.90;;;;;;4415949;28;658627;-72
2023/01/04 02:33:48;;;;;;;160.53;62.50;;;0.90;99.90;;;;;;4401226;28;658447;-73
2023/01/04 02:36:37;;;;;;;160.00;64.90;;;1.00;99.90;;;;;;4395233;28;659617;-72
2023/01/04 02:39:33;;;;;;;151.67;63.97;;;1.10;99.90;;;;;;4436258;28;658437;-72
2023/01/04 02:42:24;;;;;;;151.73;61.43;;;0.90;99.90;;;;;;4392918;28;658572;-73
2023/01/04 02:45:10;;;;;;;150.63;62.33;;;0.80;99.90;;;;;;4419979;28;659030;-73
2023/01/04 02:51:29;;;;;;;159.93;62.07;;;0.70;99.90;;;;;;4422659;28;658202;-72
2023/01/04 02:54:18;;;;;;;144.37;59.63;;;0.70;99.90;;;;;;4394057;28;658947;-72
2023/01/04 02:57:29;;;;;;;158.57;61.30;;;0.60;99.90;;;;;;4417184;28;658439;-73
2023/01/04 03:00:26;;;;;;;169.93;62.07;;;0.60;99.90;;;;;;4418847;28;658878;-72
2023/01/04 03:06:23;;;;;;;136.93;57.60;;;0.50;99.90;;;;;;4393862;28;658815;-73
2023/01/04 03:09:14;;;;;;;202.47;58.87;;;0.30;99.90;;;;;;4419143;28;659096;-73
2023/01/04 03:15:11;;;;;;;289.67;57.97;;;0.20;99.90;;;;;;4409557;28;659430;-73
2023/01/04 03:17:59;;;;;;;137.67;53.80;;;0.10;99.90;;;;;;4414585;28;658546;-73
2023/01/04 03:20:47;;;;;;;131.80;53.17;;;0.10;99.90;;;;;;4419551;28;658680;-73
2023/01/04 03:36:05;;;;;;;120.60;48.77;;;-0.20;99.90;;;;;;4355474;28;660437;-73
2023/01/04 03:48:33;;;;;;;118.70;47.23;;;-0.40;99.90;;;;;;4412783;28;660610;-74
2023/01/04 03:51:22;;;;;;;121.57;49.60;;;-0.40;99.90;;;;;;4411668;28;659510;-74
2023/01/04 03:54:11;;;;;;;128.50;50.57;;;-0.40;99.90;;;;;;4436576;28;660215;-73
2023/01/04 03:57:00;;;;;;;105.50;42.17;;;-0.50;99.90;;;;;;4414722;28;659894;-74
2023/01/04 03:59:49;;;;;;;117.80;49.63;;;-0.50;99.90;;;;;;4416842;28;660104;-74
2023/01/04 04:02:39;;;;;;;126.07;47.50;;;-0.50;99.90;;;;;;4409803;28;659712;-74
2023/01/04 04:08:31;;;;;;;102.37;42.60;;;-0.40;99.90;;;;;;4406835;28;659285;-73
2023/01/04 04:11:30;;;;;;;102.07;37.97;;;-0.40;99.90;;;;;;4427986;28;659866;-72
2023/01/04 04:14:19;;;;;;;102.50;37.50;;;-0.30;99.90;;;;;;4385269;28;660398;-74
2023/01/04 04:17:06;;;;;;;95.72;38.03;;;-0.20;99.90;;;;;;4413621;28;659539;-73
2023/01/04 04:19:53;;;;;;;100.33;40.70;;;-0.20;99.90;;;;;;4431757;28;658551;-73
2023/01/04 04:22:54;;;;;;;95.57;37.87;;;-0.20;99.90;;;;;;4883690;27;131170;-74
2023/01/04 04:25:41;;;;;;;116.23;43.93;;;-0.20;99.90;;;;;;4364133;28;652195;-74
2023/01/04 04:28:28;;;;;;;87.77;39.07;;;-0.10;99.90;;;;;;4392846;28;653640;-73
2023/01/04 04:31:15;;;;;;;90.00;35.00;;;-0.20;99.90;;;;;;4373619;28;652464;-74
2023/01/04 04:34:03;;;;;;;93.67;37.20;;;-0.20;99.90;;;;;;4388743;28;653412;-73
2023/01/04 04:36:50;;;;;;;87.03;37.53;;;-0.20;99.90;;;;;;4372766;28;652943;-74
2023/01/04 04:39:39;;;;;;;89.27;35.93;;;-0.20;99.90;;;;;;4385561;28;653945;-74
2023/01/04 04:42:25;;;;;;;92.43;35.80;;;-0.30;99.90;;;;;;4372275;28;654200;-74
2023/01/04 04:45:12;;;;;;;86.07;34.60;;;-0.30;99.90;;;;;;4394580;28;653746;-73
2023/01/04 04:47:59;;;;;;;85.33;34.73;;;-0.30;99.90;;;;;;4393940;28;653413;-74
2023/01/04 04:50:47;;;;;;;81.60;32.80;;;-0.40;99.90;;;;;;4369519;28;654525;-75
2023/01/04 04:53:34;;;;;;;76.10;32.23;;;-0.40;99.90;;;;;;4404977;28;654425;-74
2023/01/04 04:56:22;;;;;;;74.50;32.23;;;-0.40;99.90;;;;;;4393613;28;654473;-74
2023/01/04 04:59:10;;;;;;;82.50;31.60;;;-0.40;99.90;;;;;;4397502;28;655079;-75
2023/01/04 05:01:57;;;;;;;78.07;31.50;;;-0.50;99.90;;;;;;4413174;28;655069;-74
2023/01/04 05:04:45;;;;;;;76.33;32.17;;;-0.50;99.90;;;;;;4408555;28;653959;-74
2023/01/04 05:07:32;;;;;;;79.37;33.17;;;-0.60;99.90;;;;;;4393595;28;655333;-73
2023/01/04 05:10:19;;;;;;;76.27;31.67;;;-0.60;99.90;;;;;;4432136;28;654563;-73
2023/01/04 05:13:11;;;;;;;66.47;27.67;;;-0.70;99.90;;;;;;4415452;28;654838;-74
2023/01/04 05:15:58;;;;;;;72.50;28.43;;;-0.70;99.90;;;;;;4403183;28;654831;-74
2023/01/04 05:18:46;;;;;;;118.60;28.03;;;-0.70;99.90;;;;;;4419642;28;655851;-74
2023/01/04 05:21:33;;;;;;;64.73;26.27;;;-0.80;99.90;;;;;;4434059;28;656053;-74
2023/01/04 05:24:20;;;;;;;74.13;27.83;;;-0.80;99.90;;;;;;4405807;28;654416;-74
2023/01/04 05:27:07;;;;;;;67.67;28.17;;;-0.80;99.90;;;;;;4420817;28;654119;-75
2023/01/04 05:33:01;;;;;;;78.90;32.47;;;-0.90;99.90;;;;;;4366444;28;654674;-74
2023/01/04 05:35:49;;;;;;;82.17;31.30;;;-1.00;99.90;;;;;;4403885;28;654919;-74
2023/01/04 05:38:36;;;;;;;91.00;33.63;;;-1.00;99.90;;;;;;4389458;28;655362;-74
2023/01/04 05:44:28;;;;;;;95.03;32.60;;;-1.10;99.90;;;;;;4383549;28;655785;-74
2023/01/04 05:47:17;;;;;;;70.97;30.27;;;-1.20;99.90;;;;;;4394438;28;655648;-73
2023/01/04 05:50:04;;;;;;;83.67;30.00;;;-1.20;99.90;;;;;;4410252;28;654663;-74
2023/01/04 05:52:52;;;;;;;73.57;28.63;;;-1.30;99.90;;;;;;4389694;28;654132;-74
2023/01/04 05:55:39;;;;;;;64.40;27.10;;;-1.30;99.90;;;;;;4406052;28;654401;-73
2023/01/04 05:58:26;;;;;;;117.33;35.80;;;-1.30;99.90;;;;;;4390332;28;654942;-74
2023/01/04 06:01:13;;;;;;;190.30;41.03;;;-1.30;99.90;;;;;;4416426;28;655702;-74
2023/01/04 06:04:02;;;;;;;258.77;50.60;;;-1.30;99.90;;;;;;4392290;28;655744;-74
2023/01/04 06:06:49;;;;;;;234.63;47.77;;;-1.40;99.90;;;;;;4312849;28;655851;-75
2023/01/04 06:09:36;;;;;;;982.37;197.73;;;-1.40;99.90;;;;;;4219468;28;655625;-74
2023/01/04 06:12:23;;;;;;;762.23;162.60;;;-1.40;99.90;;;;;;4260937;28;656361;-74
2023/01/04 06:15:11;;;;;;;587.80;123.90;;;-1.40;99.90;;;;;;4360902;28;657180;-73
2023/01/04 06:17:58;;;;;;;235.95;64.47;;;-1.40;99.90;;;;;;4413798;28;657808;-74
2023/01/04 06:20:47;;;;;;;134.63;51.07;;;-1.50;99.90;;;;;;4386533;28;655859;-73
2023/01/04 06:23:34;;;;;;;141.63;50.90;;;-1.50;99.90;;;;;;4405618;28;655272;-73
2023/01/04 06:26:21;;;;;;;111.37;43.73;;;-1.50;99.90;;;;;;4383885;28;655831;-72
2023/01/04 06:29:09;;;;;;;152.57;62.07;;;-1.60;99.90;;;;;;4417707;28;656000;-73
2023/01/04 06:31:56;;;;;;;161.33;54.70;;;-1.50;99.90;;;;;;4388721;28;655862;-73
2023/01/04 06:34:43;;;;;;;228.93;65.43;;;-1.60;99.90;;;;;;4411585;28;655579;-72
2023/01/04 06:37:32;;;;;;;115.53;42.97;;;-1.60;99.90;;;;;;4387815;28;655464;-73
2023/01/04 06:40:19;;;;;;;105.27;41.10;;;-1.50;99.90;;;;;;4412432;28;655422;-72
2023/01/04 06:43:06;;;;;;;301.40;67.53;;;-1.60;99.90;;;;;;4398296;28;655175;-72
2023/01/04 06:45:54;;;;;;;1413.63;343.37;;;-1.50;99.90;;;;;;4411960;28;655161;-73
2023/01/04 06:48:41;;;;;;;1354.13;335.47;;;-1.60;99.90;;;;;;4388882;28;657553;-72
2023/01/04 06:51:28;;;;;;;750.60;156.07;;;-1.50;99.90;;;;;;4403014;28;658651;-73
2023/01/04 06:54:17;;;;;;;315.25;68.65;;;-1.60;99.90;;;;;;4384119;28;656368;-74
2023/01/04 06:57:04;;;;;;;220.83;58.93;;;-1.60;99.90;;;;;;4410743;28;655730;-72
2023/01/04 06:59:51;;;;;;;206.47;60.93;;;-1.60;99.90;;;;;;4387917;28;655433;-73
2023/01/04 07:02:38;;;;;;;125.90;44.50;;;-1.50;99.90;;;;;;4406930;28;656676;-72
2023/01/04 07:05:25;;;;;;;221.50;56.87;;;-1.50;99.90;;;;;;4387580;28;655528;-73
2023/01/04 07:08:13;;;;;;;184.13;52.40;;;-1.40;99.90;;;;;;4406485;28;656473;-73
2023/01/04 07:11:02;;;;;;;1246.70;83.80;;;-1.40;99.90;;;;;;4383756;28;656704;-73
2023/01/04 07:13:51;;;;;;;100.93;40.57;;;-1.30;99.90;;;;;;4406389;28;657327;-73
2023/01/04 07:16:38;;;;;;;90.65;40.92;;;-1.30;99.90;;;;;;4382186;28;657330;-73
2023/01/04 07:19:25;;;;;;;225.80;94.80;;;-1.30;99.90;;;;;;4387973;28;656148;-73
2023/01/04 07:22:13;;;;;;;268.67;109.63;;;-1.20;99.90;;;;;;4396389;28;658056;-73
2023/01/04 07:25:00;;;;;;;330.53;111.77;;;-1.20;99.90;;;;;;4394035;28;658061;-74
2023/01/04 07:27:52;;;;;;;441.57;142.27;;;-1.20;99.90;;;;;;4407574;28;657760;-73
2023/01/04 07:30:39;;;;;;;437.70;167.37;;;-1.20;99.90;;;;;;4384597;28;657552;-74
2023/01/04 07:33:27;;;;;;;568.40;233.87;;;-1.10;99.90;;;;;;4379222;28;658517;-74
2023/01/04 07:36:14;;;;;;;385.52;145.10;;;-1.00;99.90;;;;;;4397183;28;658174;-74
2023/01/04 07:39:01;;;;;;;197.03;67.33;;;-1.00;99.90;;;;;;4378073;28;657304;-74
2023/01/04 07:41:49;;;;;;;444.47;155.30;;;-0.80;99.90;;;;;;4407819;28;656231;-74
2023/01/04 07:44:38;;;;;;;324.57;121.27;;;-0.70;99.90;;;;;;4382985;28;658064;-74
2023/01/04 07:47:25;;;;;;;303.90;117.97;;;-0.60;99.90;;;;;;4385388;28;657458;-74
2023/01/04 07:50:13;;;;;;;309.10;112.63;;;-0.50;99.90;;;;;;4402191;28;658875;-74
2023/01/04 07:53:01;;;;;;;224.73;86.57;;;-0.40;99.90;;;;;;4390796;28;657848;-74
2023/01/04 07:55:48;;;;;;;206.77;77.03;;;-0.30;99.90;;;;;;4406921;28;656927;-74
2023/01/04 07:58:38;;;;;;;209.03;77.27;;;-0.10;99.90;;;;;;4382881;28;656682;-74
2023/01/04 08:01:27;;;;;;;133.07;53.47;;;0.10;99.90;;;;;;4383672;28;657136;-74
2023/01/04 08:04:15;;;;;;;112.88;47.13;;;0.30;99.90;;;;;;4409175;28;655402;-74
2023/01/04 08:07:02;;;;;;;183.60;70.47;;;0.40;99.90;;;;;;4385318;28;656517;-74
2023/01/04 08:09:49;;;;;;;184.50;66.13;;;0.50;99.90;;;;;;4395715;28;655177;-74
2023/01/04 08:12:36;;;;;;;142.95;53.17;;;0.60;99.90;;;;;;4381264;28;655573;-73
2023/01/04 08:15:23;;;;;;;170.60;47.30;;;0.70;99.90;;;;;;4404272;28;655183;-74
2023/01/04 08:18:12;;;;;;;85.97;32.93;;;0.80;99.90;;;;;;4387892;28;655723;-74
2023/01/04 08:21:03;;;;;;;141.37;49.17;;;0.90;99.90;;;;;;4406463;28;654270;-73
2023/01/04 08:23:51;;;;;;;61.30;25.40;;;1.00;99.90;;;;;;4357504;28;655787;-74
2023/01/04 08:26:38;;;;;;;56.47;24.50;;;1.20;99.90;;;;;;4407516;28;655022;-73
2023/01/04 08:29:25;;;;;;;163.80;49.03;;;1.50;99.90;;;;;;4383115;28;655961;-73
2023/01/04 08:32:12;;;;;;;61.33;25.20;;;1.70;99.90;;;;;;4408668;28;656309;-73
2023/01/04 08:35:02;;;;;;;161.43;46.13;;;2.10;99.90;;;;;;4407153;28;654620;-72
2023/01/04 08:37:49;;;;;;;78.27;27.00;;;2.70;99.90;;;;;;4403152;28;654764;-72
2023/01/04 08:40:36;;;;;;;140.95;42.97;;;3.20;99.90;;;;;;4383816;28;654942;-72
2023/01/04 08:43:23;;;;;;;132.37;43.07;;;3.70;99.90;;;;;;4400032;28;656062;-72
2023/01/04 08:46:11;;;;;;;81.87;32.37;;;4.00;99.90;;;;;;4388480;28;655893;-72
2023/01/04 08:48:58;;;;;;;59.93;25.67;;;4.30;99.90;;;;;;4404376;28;655128;-72
2023/01/04 08:51:47;;;;;;;55.60;25.48;;;4.60;99.90;;;;;;4368487;28;653951;-71
2023/01/04 08:54:34;;;;;;;47.23;22.97;;;5.00;99.90;;;;;;4392898;28;654543;-71
2023/01/04 08:57:21;;;;;;;45.50;22.17;;;5.40;99.90;;;;;;4385562;28;654960;-70
2023/01/04 09:00:10;;;;;;;44.40;22.60;;;5.80;99.90;;;;;;4407826;28;654925;-70
2023/01/04 09:02:57;;;;;;;52.37;25.23;;;6.20;99.90;;;;;;4382346;28;656225;-70
2023/01/04 09:05:45;;;;;;;56.27;26.10;;;6.60;99.90;;;;;;4399013;28;655315;-69
2023/01/04 09:08:34;;;;;;;49.93;25.70;;;7.00;99.90;;;;;;4383786;28;656787;-69
2023/01/04 09:11:21;;;;;;;47.60;24.77;;;7.90;99.90;;;;;;4387082;28;655789;-69
2023/01/04 09:14:09;;;;;;;37.43;20.63;;;8.90;99.90;;;;;;4406395;28;655976;-70
2023/01/04 09:16:56;;;;;;;41.27;24.00;;;9.60;99.90;;;;;;4389209;28;655382;-70
2023/01/04 09:19:43;;;;;;;38.73;21.47;;;10.50;99.90;;;;;;4403717;28;655521;-69
2023/01/04 09:22:31;;;;;;;39.77;20.57;;;11.10;99.90;;;;;;4387045;28;656770;-70
2023/01/04 09:25:20;;;;;;;36.92;20.58;;;11.80;99.90;;;;;;4406112;28;657403;-70
2023/01/04 09:28:07;;;;;;;34.00;18.60;;;12.40;95.80;;;;;;4380871;28;657835;-70
2023/01/04 09:30:54;;;;;;;33.70;19.27;;;12.80;93.30;;;;;;4415802;28;656057;-70
2023/01/04 09:33:41;;;;;;;37.13;20.07;;;13.00;89.70;;;;;;4397533;28;656350;-70
2023/01/04 09:36:29;;;;;;;25.67;14.27;;;13.10;88.40;;;;;;4411278;28;656943;-70
2023/01/04 09:39:16;;;;;;;19.50;11.50;;;12.80;81.20;;;;;;4388436;28;656676;-70
2023/01/04 09:42:11;;;;;;;14.17;8.23;;;13.30;75.30;;;;;;4424199;28;658278;-70
2023/01/04 09:45:01;;;;;;;18.77;10.53;;;12.90;71.00;;;;;;4383654;28;656389;-70
2023/01/04 09:47:51;;;;;;;17.87;8.47;;;12.10;76.20;;;;;;4382489;28;657848;-70
2023/01/04 09:50:42;;;;;;;14.50;8.03;;;11.60;74.40;;;;;;4395914;28;655908;-70
2023/01/04 09:53:31;;;;;;;13.77;7.90;;;11.50;76.50;;;;;;4399270;28;656558;-70
2023/01/04 09:56:22;;;;;;;17.23;9.03;;;11.30;74.80;;;;;;4397063;28;656036;-69
2023/01/04 09:59:14;;;;;;;17.23;8.97;;;11.30;74.30;;;;;;4404137;28;657045;-70
2023/01/04 10:02:03;;;;;;;18.53;10.20;;;10.30;79.40;;;;;;4384657;28;655480;-70
2023/01/04 10:04:51;;;;;;;22.30;11.43;;;10.40;77.50;;;;;;4409278;28;656975;-70
2023/01/04 10:07:38;;;;;;;21.93;11.13;;;10.60;82.60;;;;;;4420573;28;657188;-70
2023/01/04 10:10:37;;;;;;;18.77;9.83;;;10.80;78.00;;;;;;4404794;28;657427;-70
2023/01/04 10:13:34;;;;;;;21.17;10.83;;;10.60;79.40;;;;;;4385270;28;656697;-70
2023/01/04 10:16:26;;;;;;;17.93;9.40;;;9.60;84.80;;;;;;4363767;28;657032;-71
2023/01/04 10:19:21;;;;;;;21.30;10.13;;;9.30;86.30;;;;;;4382614;28;655345;-70
2023/01/04 10:22:11;;;;;;;20.60;10.17;;;9.60;86.10;;;;;;4377915;28;655662;-70
2023/01/04 10:25:02;;;;;;;19.40;9.87;;;10.10;81.90;;;;;;4400833;28;657382;-70
2023/01/04 10:27:55;;;;;;;20.63;10.80;;;10.20;81.60;;;;;;4390543;28;656995;-71
2023/01/04 10:30:46;;;;;;;21.07;11.03;;;10.90;81.60;;;;;;4361373;28;657187;-71
2023/01/04 10:33:38;;;;;;;22.43;10.47;;;10.60;78.60;;;;;;4380091;28;656748;-71
2023/01/04 10:36:30;;;;;;;17.57;9.83;;;10.70;82.30;;;;;;4371706;28;656412;-71
2023/01/04 10:39:18;;;;;;;22.17;12.17;;;11.00;76.70;;;;;;4383105;28;656997;-71
2023/01/04 10:42:11;;;;;;;21.17;11.13;;;10.20;81.20;;;;;;4386662;28;656584;-71
2023/01/04 10:45:05;;;;;;;23.70;11.20;;;11.30;77.70;;;;;;4385871;28;657236;-71
2023/01/04 10:47:56;;;;;;;21.87;11.90;;;12.00;76.00;;;;;;4361503;28;658063;-70
2023/01/04 10:50:48;;;;;;;21.97;12.10;;;11.80;72.10;;;;;;4385650;28;657017;-70
2023/01/04 10:53:37;;;;;;;22.57;12.03;;;11.80;75.10;;;;;;4374144;28;656551;-71
2023/01/04 10:56:28;;;;;;;23.40;11.07;;;11.70;74.10;;;;;;4406119;28;656469;-71
2023/01/04 10:59:17;;;;;;;19.05;10.70;;;11.40;74.80;;;;;;4403878;28;656397;-71
2023/01/04 11:02:09;;;;;;;21.77;9.93;;;10.00;77.40;;;;;;4424543;28;656171;-70
2023/01/04 11:04:59;;;;;;;24.13;11.30;;;9.40;80.50;;;;;;4369209;28;655949;-70
2023/01/04 11:07:51;;;;;;;20.20;9.93;;;9.50;82.00;;;;;;4405215;28;655820;-70
2023/01/04 11:10:40;;;;;;;19.10;9.60;;;9.50;84.60;;;;;;4399095;28;655223;-70
2023/01/04 11:13:27;;;;;;;23.60;10.90;;;8.50;85.80;;;;;;4403449;28;655845;-72
2023/01/04 11:16:14;;;;;;;26.13;11.73;;;8.50;89.40;;;;;;4408445;28;656196;-73
2023/01/04 11:19:03;;;;;;;22.07;11.53;;;8.90;87.80;;;;;;4390803;28;655497;-73
2023/01/04 11:21:55;;;;;;;25.10;12.17;;;9.30;88.40;;;;;;4402871;28;655828;-73
2023/01/04 11:24:44;;;;;;;27.60;12.63;;;9.20;89.30;;;;;;4392979;28;657276;-72
2023/01/04 11:27:35;;;;;;;28.90;13.23;;;9.20;87.40;;;;;;4402408;28;655692;-72
2023/01/04 11:30:23;;;;;;;27.80;12.83;;;9.10;89.10;;;;;;4390556;28;657025;-72
2023/01/04 11:33:13;;;;;;;29.83;14.30;;;8.50;91.50;;;;;;4387922;28;656175;-72
2023/01/04 11:36:01;;;;;;;26.53;14.60;;;7.70;92.80;;;;;;4394450;28;656518;-73
2023/01/04 11:38:55;;;;;;;35.13;15.70;;;7.40;96.90;;;;;;4409741;28;656663;-72
2023/01/04 11:41:47;;;;;;;34.27;15.80;;;7.00;98.80;;;;;;4372305;28;656113;-72
2023/01/04 11:44:34;;;;;;;37.77;16.07;;;7.30;99.90;;;;;;4385101;28;655648;-72
2023/01/04 11:47:23;;;;;;;33.17;15.40;;;7.40;99.90;;;;;;4391458;28;655653;-72
2023/01/04 11:50:37;;;;;;;31.37;14.50;;;7.40;99.90;;;;;;4409413;28;655757;-72
2023/01/04 11:53:27;;;;;;;33.03;14.97;;;7.40;99.90;;;;;;4384459;28;655623;-71
2023/01/04 11:56:16;;;;;;;36.40;15.20;;;7.40;99.90;;;;;;4391802;28;655502;-71
2023/01/04 11:59:13;;;;;;;32.53;15.23;;;7.70;99.90;;;;;;4385312;28;655296;-72
2023/01/04 12:02:21;;;;;;;32.40;14.88;;;7.90;99.90;;;;;;4384247;28;655492;-72
2023/01/04 12:05:16;;;;;;;29.23;14.30;;;7.90;99.90;;;;;;4385398;28;655822;-71
2023/01/04 12:08:03;;;;;;;25.03;12.87;;;7.70;99.90;;;;;;4379923;28;656217;-71
2023/01/04 12:10:50;;;;;;;26.97;13.63;;;8.30;99.90;;;;;;4378128;28;656038;-71
2023/01/04 12:13:38;;;;;;;26.53;13.83;;;8.50;99.20;;;;;;4422204;28;656927;-71
2023/01/04 12:16:44;;;;;;;28.07;13.23;;;8.70;98.00;;;;;;4389827;28;655575;-72
2023/01/04 12:19:31;;;;;;;30.47;14.57;;;8.30;98.50;;;;;;4389924;28;655875;-72
2023/01/04 12:22:21;;;;;;;29.50;14.20;;;8.50;98.80;;;;;;4404412;28;656717;-71
2023/01/04 12:25:21;;;;;;;31.33;14.03;;;8.30;98.50;;;;;;4381078;28;657211;-71
2023/01/04 12:28:29;;;;;;;32.00;14.93;;;8.50;97.70;;;;;;4385606;28;655402;-71
2023/01/04 12:31:29;;;;;;;30.90;15.07;;;8.50;98.60;;;;;;4365396;28;655845;-71
2023/01/04 12:34:45;;;;;;;29.70;13.67;;;8.40;98.10;;;;;;4406239;28;655858;-71
2023/01/04 12:37:48;;;;;;;29.43;13.87;;;8.10;99.50;;;;;;4357480;28;655883;-71
2023/01/04 12:40:55;;;;;;;28.97;14.27;;;7.60;99.90;;;;;;4370854;28;656018;-72
2023/01/04 12:43:42;;;;;;;28.70;14.07;;;7.20;99.90;;;;;;4361742;28;656598;-71
2023/01/04 12:49:59;;;;;;;25.10;12.80;;;6.90;99.90;;;;;;4393358;28;655697;-71
2023/01/04 12:52:47;;;;;;;25.67;12.33;;;6.80;99.90;;;;;;4366922;28;655672;-70
2023/01/04 12:55:59;;;;;;;31.07;13.93;;;6.80;99.90;;;;;;4409340;28;654924;-72
2023/01/04 12:59:08;;;;;;;24.57;11.73;;;6.70;99.90;;;;;;4390851;28;655276;-72
2023/01/04 13:02:20;;;;;;;25.75;12.15;;;6.70;99.90;;;;;;4389788;28;655910;-72
2023/01/04 13:05:32;;;;;;;27.43;12.07;;;6.70;99.90;;;;;;4360516;28;655991;-72
2023/01/04 13:08:19;;;;;;;22.77;10.38;;;6.60;99.90;;;;;;4381696;28;656266;-72
2023/01/04 13:11:07;;;;;;;25.30;11.27;;;6.70;99.90;;;;;;4396410;28;655807;-70
2023/01/04 13:13:55;;;;;;;18.70;10.00;;;6.70;99.90;;;;;;4418646;28;655651;-70
2023/01/04 13:16:45;;;;;;;18.17;9.00;;;6.70;99.90;;;;;;4390955;28;656616;-71
2023/01/04 13:19:32;;;;;;;13.27;7.30;;;6.60;99.90;;;;;;4389139;28;656426;-69
2023/01/04 13:22:23;;;;;;;15.63;6.68;;;6.70;99.90;;;;;;4408084;28;654483;-70
2023/01/04 13:25:12;;;;;;;9.73;4.93;;;6.70;99.90;;;;;;4372609;28;655109;-71
2023/01/04 13:28:00;;;;;;;11.63;5.00;;;6.70;99.90;;;;;;4417020;28;653500;-71
2023/01/04 13:30:47;;;;;;;9.07;5.05;;;6.70;99.90;;;;;;4410602;28;655414;-70
2023/01/04 13:33:34;;;;;;;14.03;4.90;;;6.80;99.90;;;;;;4417663;28;653821;-69
2023/01/04 13:36:22;;;;;;;9.83;4.50;;;6.80;99.90;;;;;;4394899;28;655718;-70
2023/01/04 13:39:12;;;;;;;11.07;4.53;;;6.90;99.90;;;;;;4401971;28;653352;-69
2023/01/04 13:42:00;;;;;;;11.27;4.73;;;7.00;99.90;;;;;;4425291;28;654808;-70
2023/01/04 13:45:08;;;;;;;8.23;4.63;;;7.10;99.90;;;;;;4437493;28;655477;-70
2023/01/04 13:47:56;;;;;;;11.03;5.10;;;7.40;99.90;;;;;;4383547;28;653257;-71
2023/01/04 13:50:46;;;;;;;9.47;4.83;;;7.30;99.90;;;;;;4412937;28;654850;-70
2023/01/04 13:53:33;;;;;;;11.80;5.03;;;7.20;99.90;;;;;;4380270;28;653534;-71
2023/01/04 13:56:22;;;;;;;13.10;5.50;;;7.50;99.90;;;;;;4404111;28;654477;-71
2023/01/04 13:59:10;;;;;;;12.13;5.53;;;8.20;99.90;;;;;;4421272;28;654925;-71
2023/01/04 14:01:57;;;;;;;10.87;5.30;;;8.50;99.90;;;;;;4415622;28;654480;-71
2023/01/04 14:04:45;;;;;;;10.87;5.70;;;8.90;97.70;;;;;;4425590;28;654681;-71
2023/01/04 14:07:32;;;;;;;10.80;5.43;;;8.30;98.10;;;;;;4429539;28;656149;-70
2023/01/04 14:10:20;;;;;;;12.47;5.57;;;7.80;99.40;;;;;;4419448;28;654892;-71
2023/01/04 14:13:13;;;;;;;7.90;4.60;;;7.50;99.90;;;;;;4428206;28;655104;-71
2023/01/04 14:16:10;;;;;;;13.83;5.83;;;7.10;99.90;;;;;;4410212;28;653579;-70
2023/01/04 14:18:57;;;;;;;9.98;4.30;;;6.80;99.90;;;;;;4389364;28;654500;-71
2023/01/04 14:21:45;;;;;;;12.20;4.80;;;6.70;99.90;;;;;;4413088;28;653817;-70
2023/01/04 14:24:33;;;;;;;11.20;5.33;;;6.60;99.90;;;;;;4383625;28;655185;-70
2023/01/04 14:27:30;;;;;;;10.88;5.13;;;6.60;99.90;;;;;;4386154;28;654001;-71
2023/01/04 14:30:25;;;;;;;8.10;3.90;;;6.60;99.90;;;;;;4376950;28;654565;-70
2023/01/04 14:33:15;;;;;;;12.60;5.17;;;6.60;99.90;;;;;;4372106;28;654206;-72
2023/01/04 14:36:04;;;;;;;11.23;4.30;;;6.60;99.90;;;;;;4402222;28;654658;-70
2023/01/04 14:38:58;;;;;;;10.47;4.30;;;6.50;99.90;;;;;;4382355;28;654540;-71
2023/01/04 14:41:52;;;;;;;6.73;3.00;;;6.50;99.90;;;;;;4400596;28;654475;-71
2023/01/04 14:44:40;;;;;;;10.10;4.53;;;6.50;99.90;;;;;;4400904;28;653541;-71
2023/01/04 14:47:29;;;;;;;13.90;4.93;;;6.50;99.90;;;;;;4406669;28;656037;-70
2023/01/04 14:50:17;;;;;;;17.37;5.33;;;6.50;99.90;;;;;;4397787;28;654344;-70
2023/01/04 14:53:04;;;;;;;16.00;5.77;;;6.50;99.90;;;;;;4419436;28;655206;-70
2023/01/04 14:55:53;;;;;;;9.97;4.87;;;6.40;99.90;;;;;;4400266;28;655281;-72
2023/01/04 14:58:40;;;;;;;16.73;6.17;;;6.50;99.90;;;;;;4388633;28;653184;-73